createdAt,value
2019-03-16T00:02:08.284Z,9.05
2019-03-16T00:04:40.575Z,9.01
2019-03-16T00:07:13.073Z,9.00
2019-03-16T00:09:45.301Z,8.97
2019-03-16T00:12:17.710Z,8.95
2019-03-16T00:14:50.034Z,8.97
2019-03-16T00:17:23.901Z,8.95
2019-03-16T00:19:56.521Z,8.97
2019-03-16T00:22:28.854Z,8.93
2019-03-16T00:25:01.162Z,8.95
2019-03-16T00:27:33.473Z,8.95
2019-03-16T00:30:05.689Z,8.95
2019-03-16T00:32:38.116Z,8.93
2019-03-16T00:35:10.452Z,8.90
2019-03-16T00:37:43.647Z,8.87
2019-03-16T00:40:16.157Z,8.88
2019-03-16T00:42:48.470Z,8.90
2019-03-16T00:45:20.798Z,8.95
2019-03-16T00:47:53.037Z,8.95
2019-03-16T00:50:25.274Z,8.92
2019-03-16T00:52:57.776Z,8.91
2019-03-16T00:55:29.966Z,8.93
2019-03-16T00:58:02.282Z,8.96
2019-03-16T01:00:34.578Z,9.00
2019-03-16T01:03:06.846Z,8.99
2019-03-16T01:05:39.062Z,8.95
2019-03-16T01:08:11.312Z,8.98
2019-03-16T01:10:43.735Z,9.03
2019-03-16T01:13:15.972Z,9.06
2019-03-16T01:15:48.226Z,9.09
2019-03-16T01:18:20.440Z,9.10
2019-03-16T01:20:52.646Z,9.15
2019-03-16T01:23:24.883Z,9.16
2019-03-16T01:25:57.188Z,9.15
2019-03-16T01:28:29.388Z,9.13
2019-03-16T01:31:01.857Z,9.12
2019-03-16T01:33:34.094Z,9.12
2019-03-16T01:36:06.357Z,9.10
2019-03-16T01:38:38.594Z,9.08
2019-03-16T01:41:10.803Z,9.04
2019-03-16T01:43:43.008Z,9.07
2019-03-16T01:46:15.196Z,9.06
2019-03-16T01:48:47.491Z,9.06
2019-03-16T01:51:19.843Z,9.03
2019-03-16T01:53:52.142Z,9.03
2019-03-16T01:56:24.366Z,8.95
2019-03-16T01:58:56.988Z,8.96
2019-03-16T02:01:29.223Z,8.94
2019-03-16T02:04:01.497Z,8.88
2019-03-16T02:06:33.779Z,8.91
2019-03-16T02:09:06.115Z,8.95
2019-03-16T02:11:38.343Z,9.01
2019-03-16T02:14:10.689Z,9.04
2019-03-16T02:16:42.923Z,9.04
2019-03-16T02:19:15.386Z,9.08
2019-03-16T02:21:47.771Z,9.04
2019-03-16T02:24:20.154Z,9.03
2019-03-16T02:26:52.378Z,9.04
2019-03-16T02:29:24.614Z,9.02
2019-03-16T02:31:57.090Z,9.02
2019-03-16T02:34:29.341Z,8.99
2019-03-16T02:37:01.606Z,8.95
2019-03-16T02:39:34.007Z,8.92
2019-03-16T02:42:06.286Z,8.88
2019-03-16T02:44:38.664Z,8.87
2019-03-16T02:47:11.295Z,8.85
2019-03-16T02:49:43.699Z,8.84
2019-03-16T02:52:15.970Z,8.81
2019-03-16T02:54:48.239Z,8.80
2019-03-16T02:57:20.503Z,8.80
2019-03-16T02:59:52.816Z,8.80
2019-03-16T03:02:25.136Z,8.79
2019-03-16T03:04:57.378Z,8.77
2019-03-16T03:07:29.681Z,8.76
2019-03-16T03:10:01.960Z,8.74
2019-03-16T03:12:34.296Z,8.72
2019-03-16T03:15:06.596Z,8.69
2019-03-16T03:17:38.850Z,8.67
2019-03-16T03:20:11.101Z,8.63
2019-03-16T03:22:43.344Z,8.59
2019-03-16T03:25:15.738Z,8.63
2019-03-16T03:27:47.984Z,8.63
2019-03-16T03:30:20.256Z,8.63
2019-03-16T03:32:52.547Z,8.60
2019-03-16T03:35:29.069Z,8.60
2019-03-16T03:37:58.711Z,8.63
2019-03-16T03:40:31.033Z,8.63
2019-03-16T03:43:03.266Z,8.61
2019-03-16T03:45:35.485Z,8.61
2019-03-16T03:48:07.751Z,8.57
2019-03-16T03:50:39.981Z,8.57
2019-03-16T03:53:12.307Z,8.57
2019-03-16T03:55:44.568Z,8.60
2019-03-16T03:58:16.797Z,8.62
2019-03-16T04:00:49.032Z,8.61
2019-03-16T04:03:21.250Z,8.58
2019-03-16T04:05:53.470Z,8.59
2019-03-16T04:08:25.745Z,8.58
2019-03-16T04:10:57.960Z,8.60
2019-03-16T04:13:31.297Z,8.63
2019-03-16T04:16:03.793Z,8.64
2019-03-16T04:18:35.996Z,8.65
2019-03-16T04:21:08.257Z,8.66
2019-03-16T04:23:40.608Z,8.65
2019-03-16T04:26:12.852Z,8.63
2019-03-16T04:28:45.114Z,8.65
2019-03-16T04:31:17.620Z,8.66
2019-03-16T04:33:50.024Z,8.65
2019-03-16T04:36:22.371Z,8.63
2019-03-16T04:38:54.600Z,8.62
2019-03-16T04:41:26.801Z,8.60
2019-03-16T04:44:00.334Z,8.58
2019-03-16T04:46:32.566Z,8.58
2019-03-16T04:49:05.027Z,8.57
2019-03-16T04:51:37.248Z,8.56
2019-03-16T04:54:09.542Z,8.55
2019-03-16T04:56:42.023Z,8.47
2019-03-16T04:59:16.090Z,8.47
2019-03-16T05:01:48.320Z,8.42
2019-03-16T05:04:20.619Z,8.38
2019-03-16T05:06:52.930Z,8.36
2019-03-16T05:09:27.236Z,8.34
2019-03-16T05:11:59.512Z,8.31
2019-03-16T05:14:31.807Z,8.30
2019-03-16T05:17:04.195Z,8.27
2019-03-16T05:19:36.557Z,8.24
2019-03-16T05:22:08.811Z,8.25
2019-03-16T05:24:41.088Z,8.24
2019-03-16T05:27:13.418Z,8.18
2019-03-16T05:29:45.668Z,8.13
2019-03-16T05:32:18.043Z,8.08
2019-03-16T05:34:56.492Z,8.09
2019-03-16T05:37:24.662Z,8.08
2019-03-16T05:39:56.951Z,8.06
2019-03-16T05:42:28.977Z,8.05
2019-03-16T05:45:01.243Z,8.04
2019-03-16T05:47:33.580Z,8.01
2019-03-16T05:50:05.827Z,8.00
2019-03-16T05:52:38.122Z,7.98
2019-03-16T05:55:11.457Z,7.98
2019-03-16T05:57:43.707Z,7.96
2019-03-16T06:00:15.939Z,7.94
2019-03-16T06:02:48.241Z,7.95
2019-03-16T06:05:20.683Z,7.96
2019-03-16T06:07:52.974Z,8.01
2019-03-16T06:10:25.199Z,8.04
2019-03-16T06:12:57.665Z,8.08
2019-03-16T06:15:29.954Z,8.06
2019-03-16T06:18:02.238Z,8.12
2019-03-16T06:20:34.509Z,8.13
2019-03-16T06:23:06.726Z,8.14
2019-03-16T06:25:39.026Z,8.15
2019-03-16T06:28:11.261Z,8.17
2019-03-16T06:30:43.551Z,8.23
2019-03-16T06:33:15.841Z,8.23
2019-03-16T06:35:48.108Z,8.35
2019-03-16T06:38:20.402Z,8.48
2019-03-16T06:40:52.601Z,8.66
2019-03-16T06:43:24.848Z,8.81
2019-03-16T06:45:59.137Z,8.99
2019-03-16T06:48:31.358Z,9.12
2019-03-16T06:51:03.763Z,9.17
2019-03-16T06:53:36.073Z,9.26
2019-03-16T06:56:08.332Z,9.30
2019-03-16T06:58:40.632Z,9.33
2019-03-16T07:01:12.903Z,9.34
2019-03-16T07:03:44.988Z,9.35
2019-03-16T07:06:17.607Z,9.37
2019-03-16T07:08:49.840Z,9.39
2019-03-16T07:11:22.074Z,9.38
2019-03-16T07:13:54.419Z,9.40
2019-03-16T07:16:26.625Z,9.42
2019-03-16T07:18:59.269Z,9.45
2019-03-16T07:21:31.566Z,9.46
2019-03-16T07:24:03.846Z,9.45
2019-03-16T07:26:36.149Z,9.46
2019-03-16T07:29:08.426Z,9.47
2019-03-16T07:31:40.693Z,9.49
2019-03-16T07:34:13.052Z,9.50
2019-03-16T07:36:45.435Z,9.51
2019-03-16T07:39:18.482Z,9.53
2019-03-16T07:41:50.835Z,9.58
2019-03-16T07:44:23.133Z,9.61
2019-03-16T07:46:55.379Z,9.65
2019-03-16T07:49:27.753Z,9.67
2019-03-16T07:51:59.959Z,9.69
2019-03-16T07:54:32.256Z,9.70
2019-03-16T07:57:04.663Z,9.76
2019-03-16T07:59:37.364Z,9.80
2019-03-16T08:02:09.734Z,9.82
2019-03-16T08:04:43.560Z,9.84
2019-03-16T08:07:15.922Z,9.85
2019-03-16T08:09:48.357Z,9.85
2019-03-16T08:12:20.570Z,9.85
2019-03-16T08:14:52.794Z,9.88
2019-03-16T08:17:25.102Z,9.89
2019-03-16T08:19:57.576Z,9.92
2019-03-16T08:22:29.923Z,9.89
2019-03-16T08:25:02.209Z,9.91
2019-03-16T08:27:34.595Z,9.87
2019-03-16T08:30:06.860Z,9.85
2019-03-16T08:32:39.212Z,9.85
2019-03-16T08:35:11.643Z,9.86
2019-03-16T08:37:43.974Z,9.86
2019-03-16T08:40:16.462Z,9.85
2019-03-16T08:42:51.369Z,9.87
2019-03-16T08:45:23.058Z,9.88
2019-03-16T08:47:55.363Z,9.93
2019-03-16T08:50:27.507Z,10.01
2019-03-16T08:53:00.134Z,10.07
2019-03-16T08:55:32.539Z,10.11
2019-03-16T08:58:06.327Z,10.13
2019-03-16T09:00:38.921Z,10.16
2019-03-16T09:03:13.547Z,10.16
2019-03-16T09:05:45.775Z,10.20
2019-03-16T09:08:18.222Z,10.23
2019-03-16T09:10:51.072Z,10.21
2019-03-16T09:13:24.404Z,10.25
2019-03-16T09:15:56.846Z,10.30
2019-03-16T09:18:29.419Z,10.30
2019-03-16T09:21:01.799Z,10.30
2019-03-16T09:23:34.105Z,10.33
2019-03-16T09:26:06.532Z,10.35
2019-03-16T09:28:38.963Z,10.34
2019-03-16T09:31:11.698Z,10.39
2019-03-16T09:33:44.060Z,10.41
2019-03-16T09:36:16.141Z,10.42
2019-03-16T09:38:48.444Z,10.46
2019-03-16T09:41:20.683Z,10.52
2019-03-16T09:43:53.168Z,10.50
2019-03-16T09:46:25.525Z,10.51
2019-03-16T09:48:57.850Z,10.49
2019-03-16T09:51:30.096Z,10.56
2019-03-16T09:54:02.343Z,10.59
2019-03-16T09:56:34.603Z,10.56
2019-03-16T09:59:09.065Z,10.59
2019-03-16T10:01:41.750Z,10.61
2019-03-16T10:04:15.240Z,10.67
2019-03-16T10:06:49.616Z,10.76
2019-03-16T10:09:22.177Z,10.85
2019-03-16T10:11:54.570Z,10.94
2019-03-16T10:14:26.879Z,10.99
2019-03-16T10:16:59.149Z,11.09
2019-03-16T10:19:32.727Z,11.23
2019-03-16T10:22:06.353Z,11.24
2019-03-16T10:24:39.104Z,11.24
2019-03-16T10:27:11.475Z,11.17
2019-03-16T10:29:44.048Z,11.07
2019-03-16T10:32:16.358Z,11.06
2019-03-16T10:34:48.763Z,11.05
2019-03-16T10:37:21.087Z,11.11
2019-03-16T10:39:53.523Z,11.16
2019-03-16T10:42:26.511Z,11.16
2019-03-16T10:44:59.801Z,11.11
2019-03-16T10:47:32.061Z,11.10
2019-03-16T10:50:04.661Z,11.08
2019-03-16T10:52:36.970Z,11.12
2019-03-16T10:55:09.556Z,11.14
2019-03-16T10:57:41.912Z,11.18
2019-03-16T11:00:15.492Z,11.32
2019-03-16T11:02:47.847Z,11.36
2019-03-16T11:05:20.138Z,11.36
2019-03-16T11:07:52.330Z,11.37
2019-03-16T11:10:24.859Z,11.35
2019-03-16T11:12:57.023Z,11.27
2019-03-16T11:15:30.410Z,11.32
2019-03-16T11:18:02.668Z,11.39
2019-03-16T11:20:35.951Z,11.61
2019-03-16T11:23:08.603Z,11.69
2019-03-16T11:25:40.926Z,11.85
2019-03-16T11:28:13.239Z,11.98
2019-03-16T11:30:45.612Z,12.11
2019-03-16T11:33:17.925Z,12.25
2019-03-16T11:35:50.188Z,12.39
2019-03-16T11:38:22.545Z,12.58
2019-03-16T11:40:54.884Z,12.65
2019-03-16T11:43:27.461Z,12.43
2019-03-16T11:45:59.746Z,12.30
2019-03-16T11:48:32.060Z,12.35
2019-03-16T11:51:04.306Z,12.28
2019-03-16T11:53:36.643Z,12.23
2019-03-16T11:56:18.073Z,12.45
2019-03-16T11:58:44.978Z,12.68
2019-03-16T12:01:18.406Z,12.72
2019-03-16T12:03:53.529Z,12.66
2019-03-16T12:06:25.810Z,12.37
2019-03-16T12:08:58.787Z,12.33
2019-03-16T12:11:31.583Z,12.27
2019-03-16T12:14:04.242Z,12.14
2019-03-16T12:16:37.967Z,11.98
2019-03-16T12:19:12.031Z,11.86
2019-03-16T12:21:44.736Z,11.98
2019-03-16T12:24:17.309Z,11.93
2019-03-16T12:26:50.639Z,11.85
2019-03-16T12:29:33.521Z,11.82
2019-03-16T12:31:56.957Z,12.33
2019-03-16T12:34:29.268Z,12.52
2019-03-16T12:37:01.695Z,12.62
2019-03-16T12:39:35.640Z,12.69
2019-03-16T12:42:08.531Z,12.69
2019-03-16T12:44:41.103Z,12.63
2019-03-16T12:47:13.611Z,12.47
2019-03-16T12:49:46.418Z,12.41
2019-03-16T12:52:20.278Z,12.39
2019-03-16T12:54:53.033Z,12.33
2019-03-16T12:57:25.430Z,12.20
2019-03-16T12:59:57.885Z,12.07
2019-03-16T13:02:30.572Z,12.00
2019-03-16T13:05:02.880Z,11.89
2019-03-16T13:07:35.184Z,11.93
2019-03-16T13:10:08.170Z,11.98
2019-03-16T13:12:42.079Z,12.16
2019-03-16T13:15:14.764Z,12.51
2019-03-16T13:17:47.782Z,12.72
2019-03-16T13:20:20.193Z,12.60
2019-03-16T13:22:52.597Z,12.46
2019-03-16T13:25:24.933Z,12.33
2019-03-16T13:27:57.553Z,12.24
2019-03-16T13:30:29.896Z,12.10
2019-03-16T13:33:02.267Z,12.06
2019-03-16T13:35:34.659Z,12.04
2019-03-16T13:38:06.829Z,12.07
2019-03-16T13:40:39.655Z,12.03
2019-03-16T13:43:12.129Z,12.05
2019-03-16T13:45:44.738Z,12.08
2019-03-16T13:48:17.010Z,12.07
2019-03-16T13:50:49.615Z,12.18
2019-03-16T13:53:21.855Z,12.27
2019-03-16T13:55:54.511Z,12.29
2019-03-16T13:58:26.779Z,12.18
2019-03-16T14:00:59.736Z,12.03
2019-03-16T14:03:32.002Z,11.99
2019-03-16T14:06:04.567Z,12.02
2019-03-16T14:08:36.914Z,12.13
2019-03-16T14:11:09.174Z,12.13
2019-03-16T14:13:41.728Z,12.12
2019-03-16T14:16:14.377Z,12.06
2019-03-16T14:18:47.504Z,11.97
2019-03-16T14:21:20.156Z,11.97
2019-03-16T14:23:52.429Z,11.96
2019-03-16T14:26:24.721Z,11.90
2019-03-16T14:28:57.023Z,11.93
2019-03-16T14:31:29.700Z,11.94
2019-03-16T14:34:02.191Z,11.92
2019-03-16T14:36:34.820Z,11.87
2019-03-16T14:39:07.252Z,11.90
2019-03-16T14:41:39.970Z,11.89
2019-03-16T14:44:12.421Z,11.90
2019-03-16T14:46:44.924Z,11.88
2019-03-16T14:49:17.272Z,11.85
2019-03-16T14:51:49.975Z,11.77
2019-03-16T14:54:22.599Z,11.75
2019-03-16T14:56:55.741Z,11.81
2019-03-16T14:59:28.946Z,11.86
2019-03-16T15:02:01.308Z,11.85
2019-03-16T15:04:33.726Z,11.77
2019-03-16T15:07:06.095Z,11.66
2019-03-16T15:09:38.470Z,11.60
2019-03-16T15:12:10.904Z,11.63
2019-03-16T15:14:43.587Z,11.63
2019-03-16T15:17:16.320Z,11.67
2019-03-16T15:19:48.614Z,11.74
2019-03-16T15:22:21.209Z,11.79
2019-03-16T15:24:54.180Z,11.80
2019-03-16T15:27:26.488Z,11.85
2019-03-16T15:29:58.821Z,11.91
2019-03-16T15:32:31.308Z,11.88
2019-03-16T15:35:05.789Z,11.91
2019-03-16T15:37:38.398Z,11.87
2019-03-16T15:40:10.978Z,11.81
2019-03-16T15:42:43.332Z,11.76
2019-03-16T15:45:15.803Z,11.69
2019-03-16T15:47:48.142Z,11.65
2019-03-16T15:50:20.883Z,11.59
2019-03-16T15:52:53.376Z,11.56
2019-03-16T15:55:25.801Z,11.50
2019-03-16T15:58:08.012Z,11.46
2019-03-16T16:00:32.519Z,11.47
2019-03-16T16:03:05.119Z,11.43
2019-03-16T16:05:37.704Z,11.43
2019-03-16T16:08:10.160Z,11.42
2019-03-16T16:10:43.091Z,11.41
2019-03-16T16:13:15.920Z,11.41
2019-03-16T16:15:48.290Z,11.42
2019-03-16T16:18:22.449Z,11.47
2019-03-16T16:20:56.224Z,11.47
2019-03-16T16:23:28.676Z,11.46
2019-03-16T16:26:01.269Z,11.40
2019-03-16T16:28:33.812Z,11.39
2019-03-16T16:31:15.645Z,11.36
2019-03-16T16:33:40.223Z,11.37
2019-03-16T16:36:12.612Z,11.38
2019-03-16T16:38:45.623Z,11.34
2019-03-16T16:41:19.209Z,11.34
2019-03-16T16:43:52.074Z,11.33
2019-03-16T16:46:24.615Z,11.32
2019-03-16T16:48:59.107Z,11.31
2019-03-16T16:51:31.378Z,11.30
2019-03-16T16:54:04.200Z,11.29
2019-03-16T16:56:36.567Z,11.26
2019-03-16T16:59:09.067Z,11.26
2019-03-16T17:01:41.515Z,11.25
2019-03-16T17:04:13.924Z,11.25
2019-03-16T17:06:46.440Z,11.25
2019-03-16T17:09:19.024Z,11.24
2019-03-16T17:11:51.629Z,11.21
2019-03-16T17:14:24.515Z,11.25
2019-03-16T17:16:58.592Z,11.23
2019-03-16T17:19:31.649Z,11.21
2019-03-16T17:22:03.978Z,11.21
2019-03-16T17:24:36.702Z,11.19
2019-03-16T17:27:09.316Z,11.19
2019-03-16T17:29:41.671Z,11.19
2019-03-16T17:32:14.100Z,11.19
2019-03-16T17:34:46.556Z,11.20
2019-03-16T17:37:20.103Z,11.19
2019-03-16T17:39:52.470Z,11.20
2019-03-16T17:42:25.012Z,11.18
2019-03-16T17:44:57.483Z,11.17
2019-03-16T17:47:29.688Z,11.18
2019-03-16T17:50:01.994Z,11.18
2019-03-16T17:52:34.772Z,11.18
2019-03-16T17:55:07.163Z,11.18
2019-03-16T17:57:39.481Z,11.16
2019-03-16T18:00:12.191Z,11.13
2019-03-16T18:02:51.727Z,11.10
2019-03-16T18:05:19.859Z,11.05
2019-03-16T18:07:52.654Z,11.02
2019-03-16T18:10:25.049Z,11.01
2019-03-16T18:12:57.536Z,10.97
2019-03-16T18:15:30.102Z,10.95
2019-03-16T18:18:02.508Z,10.94
2019-03-16T18:20:34.854Z,10.92
2019-03-16T18:23:07.483Z,10.91
2019-03-16T18:25:39.810Z,10.93
2019-03-16T18:28:12.145Z,10.96
2019-03-16T18:30:44.580Z,10.97
2019-03-16T18:33:16.996Z,10.98
2019-03-16T18:35:49.494Z,10.98
2019-03-16T18:38:21.965Z,10.98
2019-03-16T18:40:54.301Z,10.98
2019-03-16T18:43:26.788Z,11.00
2019-03-16T18:45:59.287Z,10.99
2019-03-16T18:48:31.983Z,10.99
2019-03-16T18:51:04.420Z,11.00
2019-03-16T18:53:36.713Z,10.97
2019-03-16T18:56:08.914Z,10.93
2019-03-16T18:58:41.494Z,10.89
2019-03-16T19:01:13.741Z,10.87
2019-03-16T19:03:46.051Z,10.90
2019-03-16T19:06:18.233Z,10.94
2019-03-16T19:08:50.554Z,10.96
2019-03-16T19:11:23.020Z,10.98
2019-03-16T19:13:55.495Z,11.02
2019-03-16T19:16:28.460Z,11.00
2019-03-16T19:19:00.787Z,11.00
2019-03-16T19:21:33.125Z,10.98
2019-03-16T19:24:05.427Z,10.94
2019-03-16T19:26:38.962Z,10.93
2019-03-16T19:29:11.465Z,10.94
2019-03-16T19:31:43.842Z,10.92
2019-03-16T19:34:16.322Z,10.92
2019-03-16T19:36:49.800Z,10.92
2019-03-16T19:39:24.945Z,10.94
2019-03-16T19:41:57.125Z,10.93
2019-03-16T19:44:29.448Z,10.88
2019-03-16T19:47:02.401Z,10.84
2019-03-16T19:49:35.802Z,10.82
2019-03-16T19:52:08.216Z,10.83
2019-03-16T19:54:40.550Z,10.85
2019-03-16T19:57:16.099Z,10.87
2019-03-16T19:59:46.828Z,10.94
2019-03-16T20:02:19.392Z,10.95
2019-03-16T20:04:52.323Z,10.97
2019-03-16T20:07:24.837Z,10.96
2019-03-16T20:09:57.244Z,11.00
2019-03-16T20:12:29.613Z,10.99
2019-03-16T20:15:03.049Z,10.99
2019-03-16T20:17:35.748Z,10.96
2019-03-16T20:20:08.689Z,10.91
2019-03-16T20:22:41.420Z,10.89
2019-03-16T20:25:14.854Z,10.91
2019-03-16T20:27:47.192Z,10.88
2019-03-16T20:30:26.261Z,10.89
2019-03-16T20:33:03.928Z,10.91
2019-03-16T20:35:28.860Z,10.89
2019-03-16T20:38:01.227Z,10.88
2019-03-16T20:40:33.639Z,10.92
2019-03-16T20:43:05.859Z,10.90
2019-03-16T20:45:38.335Z,10.84
2019-03-16T20:48:10.884Z,10.80
2019-03-16T20:50:43.254Z,10.78
2019-03-16T20:53:15.488Z,10.75
2019-03-16T20:55:47.870Z,10.78
2019-03-16T20:58:21.297Z,10.82
2019-03-16T21:00:53.771Z,10.79
2019-03-16T21:03:26.209Z,10.74
2019-03-16T21:05:58.757Z,10.74
2019-03-16T21:08:31.168Z,10.69
2019-03-16T21:11:03.666Z,10.66
2019-03-16T21:13:36.055Z,10.62
2019-03-16T21:16:08.144Z,10.55
2019-03-16T21:18:42.627Z,10.52
2019-03-16T21:21:15.000Z,10.51
2019-03-16T21:23:47.310Z,10.52
2019-03-16T21:26:19.651Z,10.55
2019-03-16T21:28:52.322Z,10.58
2019-03-16T21:31:24.685Z,10.61
2019-03-16T21:33:58.019Z,10.65
2019-03-16T21:36:41.064Z,10.64
2019-03-16T21:39:04.286Z,10.67
2019-03-16T21:41:37.057Z,10.65
2019-03-16T21:44:09.411Z,10.60
2019-03-16T21:46:43.850Z,10.58
2019-03-16T21:49:15.708Z,10.55
2019-03-16T21:51:48.041Z,10.50
2019-03-16T21:54:20.351Z,10.46
2019-03-16T21:56:52.774Z,10.43
2019-03-16T21:59:26.502Z,10.40
2019-03-16T22:01:59.325Z,10.36
2019-03-16T22:04:31.748Z,10.32
2019-03-16T22:07:05.073Z,10.30
2019-03-16T22:09:37.385Z,10.27
2019-03-16T22:12:09.717Z,10.29
2019-03-16T22:14:42.194Z,10.28
2019-03-16T22:17:14.457Z,10.27
2019-03-16T22:19:46.766Z,10.33
2019-03-16T22:22:19.107Z,10.39
2019-03-16T22:24:51.447Z,10.45
2019-03-16T22:27:25.592Z,10.50
2019-03-16T22:29:57.830Z,10.53
2019-03-16T22:32:30.131Z,10.52
2019-03-16T22:35:02.700Z,10.42
2019-03-16T22:37:34.950Z,10.33
2019-03-16T22:40:07.598Z,10.28
2019-03-16T22:42:39.878Z,10.23
2019-03-16T22:45:12.179Z,10.21
2019-03-16T22:47:44.675Z,10.17
2019-03-16T22:50:17.329Z,10.21
2019-03-16T22:52:50.430Z,10.31
2019-03-16T22:55:22.623Z,10.39
2019-03-16T22:57:54.985Z,10.47
2019-03-16T23:00:27.496Z,10.49
2019-03-16T23:03:01.209Z,10.50
2019-03-16T23:05:34.385Z,10.50
2019-03-16T23:08:06.870Z,10.50
2019-03-16T23:10:39.207Z,10.50
2019-03-16T23:13:12.261Z,10.51
2019-03-16T23:15:44.874Z,10.55
2019-03-16T23:18:17.205Z,10.64
2019-03-16T23:20:49.635Z,10.68
2019-03-16T23:23:22.275Z,10.73
2019-03-16T23:25:54.577Z,10.76
2019-03-16T23:28:27.152Z,10.78
2019-03-16T23:30:59.742Z,10.79
2019-03-16T23:33:32.357Z,10.80
2019-03-16T23:36:05.101Z,10.83
2019-03-16T23:38:37.448Z,10.85
2019-03-16T23:41:09.786Z,10.89
2019-03-16T23:43:42.049Z,10.87
2019-03-16T23:46:14.423Z,10.87
2019-03-16T23:48:46.759Z,10.86
2019-03-16T23:51:19.171Z,10.87
2019-03-16T23:53:51.675Z,10.88
2019-03-16T23:56:24.300Z,10.90
2019-03-16T23:58:56.867Z,10.91
